Havana, AR

5:51 PM CDT on September 30, 2014 (GMT -0500)
Booneville Municipal Airport | Change Station
CLOSE
Current Station
Personal Weather Station
Location: Booneville, AR
Elevation: 460 ft
Nearby Weather Stations

Elev 460 ft 35.15 °N, 93.86 °W | Updated 17 minutes ago

Partly Cloudy
Partly Cloudy
82.1 °F
Feels Like 83 °F
N
4.0
Wind Variable Wind from ESE
Gusts 8.0 mph

Today
High -- | Low -- °F
--% Chance of Precip.
Yesterday
High -- | Low -- °F
Precip. -- in
7:08 AM 6:59 PM
Waxing Crescent, 41% visible
Pressure 29.83 in
Visibility 10.0 miles
Clouds Clear
Heat Index 83 °F
Dew Point 63 °F
Humidity 53%
Rainfall 0.00 in
Snow Depth Not available.
UV 2 out of 12
Pollen 9.00 out of 12
Air Quality Not available.
Flu Activity Not available.
METAR KRUE 302153Z AUTO 00000KT 10SM CLR 29/14 A2986 RMK AO2 SLP102 T02890144

More Conditions Fewer Conditions

Pressure 29.83 in
Visibility 10.0 miles
Clouds Clear
Heat Index 83 °F
Dew Point 63 °F
Humidity 53%
Rainfall 0.00 in
Snow Depth Not available.
UV 2 out of 12
Pollen 9.00 out of 12
Air Quality Not available.
Flu Activity Not available.
METAR KRUE 302153Z AUTO 00000KT 10SM CLR 29/14 A2986 RMK AO2 SLP102 T02890144

More Conditions Fewer Conditions

10-Day Weather Forecast

Almanac

Astronomy

Sep. 30, 2014 Rise Set
Actual Time 7:08 AM CDT 6:59 PM CDT
Civil Twilight 6:43 AM CDT 7:24 PM CDT
Nautical Twilight 6:13 AM CDT 7:54 PM CDT
Astronomical Twilight 5:44 AM CDT 8:23 PM CDT
Moon 1:07 PM CDT 11:40 PM CDT
Length of Visible Light 12h 41m
Length of Day
11h 51m
Tomorrow will be 2m 10s shorter.
Waxing Crescent, 41% of the Moon is Illuminated
Today
Waxing Crescent
Oct 1
First Quarter
Oct 8
Full
Oct 15
Last Quarter
Oct 23
New

Today's Extremes

State Highs State Lows

Community

WunderPhotos

Upload Photos

1,757,767 photos uploaded!

Nearby

Snow Depth

Station Depth Elevation
No new snow has been reported.

Earthquake Activity

City Distance Mag. Time & Date
No recent earthquake activity has been reported nearby.
Minimum magnitude displayed is 2.5.

Coastal Water Temperatures

Place Temperature
No Stations Reporting

Nearby Weather Stations